Thursday, November 23, 2017, 7:27 AM GMT
Back to Local

CWXC, Onatchiway, Que.

Location: , , Canada Lat: 48.883
Local Time: 7:27 AM GMT ( 7:27 GMT) Lon: -71.033
Time Zone: GMT Elev: 997 ft

Show me the last for .
Show Coded

Time T Td Feel RH Dir Speed Gust Alt SLP Vis Weather Sky Remarks
2017-11-23 07:00 19 12 10 75 320° 7 - - 29.94 0 None
2017-11-23 06:00 19 14 9 79 330° 9 - - 29.93 0 None
2017-11-23 05:00 19 14 10 79 320° 7 - - 29.94 0 None
2017-11-23 04:00 20 15 10 81 340° 8 - - 29.96 0 None
2017-11-23 03:00 22 15 12 75 340° 9 - - 29.97 0 None
2017-11-23 02:00 20 15 10 80 340° 8 - - 29.98 0 None
2017-11-23 01:00 20 15 11 79 330° 8 - - 29.99 0 None
2017-11-23 00:00 21 18 10 85 340° 10 - - 29.98 0 None
2017-11-22 23:00 22 19 12 87 350° 9 - - 29.97 0 None
2017-11-22 22:00 24 21 15 87 350° 8 - - 29.97 0 None
2017-11-22 21:00 24 21 15 85 360° 8 - - 29.95 0 None
2017-11-22 20:00 25 22 16 91 10° 8 - - 29.94 0 None
2017-11-22 19:00 26 24 17 91 340° 8 - - 29.91 0 None
2017-11-22 18:00 27 26 19 94 10° 8 - - 29.90 0 None
2017-11-22 17:00 29 28 20 96 360° 9 - - 29.89 0 None
2017-11-22 16:00 30 29 22 98 360° 8 - - 29.90 0 1-hr Precip Total: 0.01"
2017-11-22 15:00 31 30 22 99 360° 9 - - 29.90 0 None
2017-11-22 14:00 31 31 21 100 360° 12 - - 29.88 0 1-hr Precip Total: 0.01"
2017-11-22 13:00 31 32 - 101 250° 1 - - 29.87 0 1-hr Precip Total: 0.01"
2017-11-22 12:00 33 33 29 100 190° 5 - - 29.84 0 1-hr Precip Total: 0.01"
2017-11-22 11:00 33 33 30 100 180° 3 - - 29.82 0 1-hr Precip Total: 0.02"
2017-11-22 10:00 33 33 30 100 190° 3 - - 29.80 0 1-hr Precip Total: 0.02"
2017-11-22 09:00 34 34 - 100 190° 2 - - 29.78 0 1-hr Precip Total: 0.02"
2017-11-22 08:00 34 34 - 100 200° 2 - - 29.77 0 1-hr Precip Total: 0.01"

Support USWX by starting your Amazon purchase here.